sensor_id;sensor_type;location;lat;lon;timestamp;P1;durP1;ratioP1;P2;durP2;ratioP2
22652;SDS011;11493;43.344;26.226;2023-03-01T00:01:12;8.77;;;7.22;;
22652;SDS011;11493;43.344;26.226;2023-03-01T00:03:41;9.57;;;6.72;;
22652;SDS011;11493;43.344;26.226;2023-03-01T00:06:09;8.80;;;6.75;;
22652;SDS011;11493;43.344;26.226;2023-03-01T00:08:36;8.02;;;6.32;;
22652;SDS011;11493;43.344;26.226;2023-03-01T00:11:07;8.45;;;6.97;;
22652;SDS011;11493;43.344;26.226;2023-03-01T00:13:48;7.82;;;6.75;;
22652;SDS011;11493;43.344;26.226;2023-03-01T00:16:17;11.40;;;7.00;;
22652;SDS011;11493;43.344;26.226;2023-03-01T00:18:46;7.70;;;6.85;;
22652;SDS011;11493;43.344;26.226;2023-03-01T00:21:13;9.45;;;6.85;;
22652;SDS011;11493;43.344;26.226;2023-03-01T00:23:40;7.82;;;6.15;;
22652;SDS011;11493;43.344;26.226;2023-03-01T00:26:09;6.53;;;5.85;;
22652;SDS011;11493;43.344;26.226;2023-03-01T00:28:39;6.85;;;5.43;;
22652;SDS011;11493;43.344;26.226;2023-03-01T00:31:08;7.38;;;4.63;;
22652;SDS011;11493;43.344;26.226;2023-03-01T00:33:37;5.35;;;4.85;;
22652;SDS011;11493;43.344;26.226;2023-03-01T00:36:04;6.32;;;5.72;;
22652;SDS011;11493;43.344;26.226;2023-03-01T00:38:39;7.32;;;4.95;;
22652;SDS011;11493;43.344;26.226;2023-03-01T00:41:08;5.53;;;4.90;;
22652;SDS011;11493;43.344;26.226;2023-03-01T00:43:36;6.65;;;5.60;;
22652;SDS011;11493;43.344;26.226;2023-03-01T00:46:05;7.38;;;6.07;;
22652;SDS011;11493;43.344;26.226;2023-03-01T00:48:34;6.88;;;5.75;;
22652;SDS011;11493;43.344;26.226;2023-03-01T00:51:15;5.65;;;5.05;;
22652;SDS011;11493;43.344;26.226;2023-03-01T00:53:45;6.65;;;5.80;;
22652;SDS011;11493;43.344;26.226;2023-03-01T00:56:13;5.72;;;5.15;;
22652;SDS011;11493;43.344;26.226;2023-03-01T00:58:42;6.75;;;6.03;;
22652;SDS011;11493;43.344;26.226;2023-03-01T01:01:10;6.43;;;5.40;;
22652;SDS011;11493;43.344;26.226;2023-03-01T01:03:48;5.68;;;5.05;;
22652;SDS011;11493;43.344;26.226;2023-03-01T01:06:37;5.95;;;5.03;;
22652;SDS011;11493;43.344;26.226;2023-03-01T01:09:06;7.18;;;5.47;;
22652;SDS011;11493;43.344;26.226;2023-03-01T01:11:33;8.00;;;5.30;;
22652;SDS011;11493;43.344;26.226;2023-03-01T01:14:02;7.68;;;5.68;;
22652;SDS011;11493;43.344;26.226;2023-03-01T01:16:29;6.55;;;5.32;;
22652;SDS011;11493;43.344;26.226;2023-03-01T01:18:57;7.78;;;5.15;;
22652;SDS011;11493;43.344;26.226;2023-03-01T01:21:24;7.55;;;5.68;;
22652;SDS011;11493;43.344;26.226;2023-03-01T01:23:53;4.40;;;3.95;;
22652;SDS011;11493;43.344;26.226;2023-03-01T01:26:22;7.75;;;5.60;;
22652;SDS011;11493;43.344;26.226;2023-03-01T01:28:51;5.75;;;4.60;;
22652;SDS011;11493;43.344;26.226;2023-03-01T01:31:19;7.25;;;5.07;;
22652;SDS011;11493;43.344;26.226;2023-03-01T01:33:46;6.00;;;4.75;;
22652;SDS011;11493;43.344;26.226;2023-03-01T01:36:13;6.28;;;4.68;;
22652;SDS011;11493;43.344;26.226;2023-03-01T01:38:40;5.05;;;4.53;;
22652;SDS011;11493;43.344;26.226;2023-03-01T01:41:09;7.13;;;5.65;;
22652;SDS011;11493;43.344;26.226;2023-03-01T01:43:39;5.90;;;5.05;;
22652;SDS011;11493;43.344;26.226;2023-03-01T01:48:57;6.75;;;5.10;;
22652;SDS011;11493;43.344;26.226;2023-03-01T01:51:37;6.45;;;5.47;;
22652;SDS011;11493;43.344;26.226;2023-03-01T01:54:12;5.13;;;4.45;;
22652;SDS011;11493;43.344;26.226;2023-03-01T01:56:45;6.50;;;4.90;;
22652;SDS011;11493;43.344;26.226;2023-03-01T01:59:18;5.68;;;4.93;;
22652;SDS011;11493;43.344;26.226;2023-03-01T02:01:45;6.30;;;5.60;;
22652;SDS011;11493;43.344;26.226;2023-03-01T02:04:12;6.30;;;5.55;;
22652;SDS011;11493;43.344;26.226;2023-03-01T02:06:44;5.65;;;5.05;;
22652;SDS011;11493;43.344;26.226;2023-03-01T02:09:20;5.00;;;4.28;;
22652;SDS011;11493;43.344;26.226;2023-03-01T02:11:50;4.88;;;4.38;;
22652;SDS011;11493;43.344;26.226;2023-03-01T02:14:17;5.55;;;5.05;;
22652;SDS011;11493;43.344;26.226;2023-03-01T02:16:44;5.18;;;4.68;;
22652;SDS011;11493;43.344;26.226;2023-03-01T02:19:15;4.57;;;4.18;;
22652;SDS011;11493;43.344;26.226;2023-03-01T02:27:25;5.32;;;4.70;;
22652;SDS011;11493;43.344;26.226;2023-03-01T02:29:57;4.93;;;4.45;;
22652;SDS011;11493;43.344;26.226;2023-03-01T02:32:24;6.63;;;4.85;;
22652;SDS011;11493;43.344;26.226;2023-03-01T02:34:53;4.50;;;4.10;;
22652;SDS011;11493;43.344;26.226;2023-03-01T02:37:22;6.28;;;5.07;;
22652;SDS011;11493;43.344;26.226;2023-03-01T02:39:58;5.05;;;4.30;;
22652;SDS011;11493;43.344;26.226;2023-03-01T02:42:35;5.55;;;4.60;;
22652;SDS011;11493;43.344;26.226;2023-03-01T02:45:07;5.05;;;4.55;;
22652;SDS011;11493;43.344;26.226;2023-03-01T02:47:36;5.18;;;4.53;;
22652;SDS011;11493;43.344;26.226;2023-03-01T02:50:09;5.05;;;4.55;;
22652;SDS011;11493;43.344;26.226;2023-03-01T02:53:02;5.25;;;4.75;;
22652;SDS011;11493;43.344;26.226;2023-03-01T02:55:37;5.45;;;4.65;;
22652;SDS011;11493;43.344;26.226;2023-03-01T02:58:05;5.30;;;4.63;;
22652;SDS011;11493;43.344;26.226;2023-03-01T03:00:35;7.20;;;4.13;;
22652;SDS011;11493;43.344;26.226;2023-03-01T03:03:06;5.95;;;4.65;;
22652;SDS011;11493;43.344;26.226;2023-03-01T03:05:34;7.53;;;5.75;;
22652;SDS011;11493;43.344;26.226;2023-03-01T03:08:01;7.68;;;5.55;;
22652;SDS011;11493;43.344;26.226;2023-03-01T03:10:35;7.40;;;5.20;;
22652;SDS011;11493;43.344;26.226;2023-03-01T03:13:07;4.97;;;4.45;;
22652;SDS011;11493;43.344;26.226;2023-03-01T03:15:39;6.63;;;4.97;;
22652;SDS011;11493;43.344;26.226;2023-03-01T03:18:09;5.65;;;4.65;;
22652;SDS011;11493;43.344;26.226;2023-03-01T03:20:39;5.50;;;4.30;;
22652;SDS011;11493;43.344;26.226;2023-03-01T03:23:08;6.30;;;5.70;;
22652;SDS011;11493;43.344;26.226;2023-03-01T03:25:35;6.28;;;5.35;;
22652;SDS011;11493;43.344;26.226;2023-03-01T03:28:05;5.13;;;4.57;;
22652;SDS011;11493;43.344;26.226;2023-03-01T03:30:37;4.22;;;3.83;;
22652;SDS011;11493;43.344;26.226;2023-03-01T03:33:07;4.85;;;4.35;;
22652;SDS011;11493;43.344;26.226;2023-03-01T03:35:40;4.60;;;4.07;;
22652;SDS011;11493;43.344;26.226;2023-03-01T03:38:10;5.30;;;4.50;;
22652;SDS011;11493;43.344;26.226;2023-03-01T03:43:12;5.28;;;4.75;;
22652;SDS011;11493;43.344;26.226;2023-03-01T03:45:43;6.68;;;5.03;;
22652;SDS011;11493;43.344;26.226;2023-03-01T03:48:12;6.53;;;5.18;;
22652;SDS011;11493;43.344;26.226;2023-03-01T03:50:40;5.80;;;4.53;;
22652;SDS011;11493;43.344;26.226;2023-03-01T03:53:09;8.60;;;5.47;;
22652;SDS011;11493;43.344;26.226;2023-03-01T03:55:38;12.23;;;5.00;;
22652;SDS011;11493;43.344;26.226;2023-03-01T03:58:07;6.88;;;5.30;;
22652;SDS011;11493;43.344;26.226;2023-03-01T04:00:43;6.93;;;5.20;;
22652;SDS011;11493;43.344;26.226;2023-03-01T04:03:11;5.38;;;4.75;;
22652;SDS011;11493;43.344;26.226;2023-03-01T04:05:39;5.25;;;4.32;;
22652;SDS011;11493;43.344;26.226;2023-03-01T04:08:07;5.78;;;4.90;;
22652;SDS011;11493;43.344;26.226;2023-03-01T04:13:07;5.75;;;4.55;;
22652;SDS011;11493;43.344;26.226;2023-03-01T04:15:39;7.07;;;5.20;;
22652;SDS011;11493;43.344;26.226;2023-03-01T04:18:07;6.68;;;5.25;;
22652;SDS011;11493;43.344;26.226;2023-03-01T04:20:37;5.60;;;5.00;;
22652;SDS011;11493;43.344;26.226;2023-03-01T04:23:06;5.97;;;5.05;;
22652;SDS011;11493;43.344;26.226;2023-03-01T04:25:40;7.38;;;5.03;;
22652;SDS011;11493;43.344;26.226;2023-03-01T04:28:07;6.90;;;5.53;;
22652;SDS011;11493;43.344;26.226;2023-03-01T04:30:37;6.32;;;5.22;;
22652;SDS011;11493;43.344;26.226;2023-03-01T04:33:05;6.65;;;5.70;;
22652;SDS011;11493;43.344;26.226;2023-03-01T04:35:34;7.68;;;5.88;;
22652;SDS011;11493;43.344;26.226;2023-03-01T04:38:02;7.22;;;5.72;;
22652;SDS011;11493;43.344;26.226;2023-03-01T04:40:30;7.53;;;5.95;;
22652;SDS011;11493;43.344;26.226;2023-03-01T04:42:57;7.45;;;6.35;;
22652;SDS011;11493;43.344;26.226;2023-03-01T04:45:24;10.07;;;6.60;;
22652;SDS011;11493;43.344;26.226;2023-03-01T04:47:50;8.80;;;6.00;;
22652;SDS011;11493;43.344;26.226;2023-03-01T04:50:20;8.48;;;6.80;;
22652;SDS011;11493;43.344;26.226;2023-03-01T04:52:48;11.05;;;6.90;;
22652;SDS011;11493;43.344;26.226;2023-03-01T04:55:15;10.10;;;7.60;;
22652;SDS011;11493;43.344;26.226;2023-03-01T04:57:42;10.57;;;7.68;;
22652;SDS011;11493;43.344;26.226;2023-03-01T05:00:13;13.38;;;8.23;;
22652;SDS011;11493;43.344;26.226;2023-03-01T05:05:15;16.13;;;9.57;;
22652;SDS011;11493;43.344;26.226;2023-03-01T05:07:42;16.17;;;10.73;;
22652;SDS011;11493;43.344;26.226;2023-03-01T05:10:09;16.75;;;11.43;;
22652;SDS011;11493;43.344;26.226;2023-03-01T05:12:36;20.38;;;11.48;;
22652;SDS011;11493;43.344;26.226;2023-03-01T05:15:04;32.65;;;17.23;;
22652;SDS011;11493;43.344;26.226;2023-03-01T05:17:33;20.20;;;11.85;;
22652;SDS011;11493;43.344;26.226;2023-03-01T05:20:00;18.05;;;10.82;;
22652;SDS011;11493;43.344;26.226;2023-03-01T05:22:27;14.20;;;9.07;;
22652;SDS011;11493;43.344;26.226;2023-03-01T05:24:54;16.10;;;9.68;;
22652;SDS011;11493;43.344;26.226;2023-03-01T05:27:22;15.35;;;10.35;;
22652;SDS011;11493;43.344;26.226;2023-03-01T05:29:48;12.93;;;9.57;;
22652;SDS011;11493;43.344;26.226;2023-03-01T05:32:16;19.42;;;10.18;;
22652;SDS011;11493;43.344;26.226;2023-03-01T05:34:42;16.75;;;10.25;;
22652;SDS011;11493;43.344;26.226;2023-03-01T05:37:10;14.27;;;9.32;;
22652;SDS011;11493;43.344;26.226;2023-03-01T05:39:37;13.52;;;7.95;;
22652;SDS011;11493;43.344;26.226;2023-03-01T05:42:04;11.73;;;7.88;;
22652;SDS011;11493;43.344;26.226;2023-03-01T05:44:31;9.82;;;8.45;;
22652;SDS011;11493;43.344;26.226;2023-03-01T05:46:58;11.02;;;9.02;;
22652;SDS011;11493;43.344;26.226;2023-03-01T05:49:25;14.98;;;8.65;;
22652;SDS011;11493;43.344;26.226;2023-03-01T05:51:53;17.67;;;13.13;;
22652;SDS011;11493;43.344;26.226;2023-03-01T05:54:20;18.50;;;13.73;;
22652;SDS011;11493;43.344;26.226;2023-03-01T05:56:48;16.70;;;9.63;;
22652;SDS011;11493;43.344;26.226;2023-03-01T05:59:15;15.32;;;10.00;;
22652;SDS011;11493;43.344;26.226;2023-03-01T06:01:42;12.52;;;9.40;;
22652;SDS011;11493;43.344;26.226;2023-03-01T06:04:10;15.32;;;11.57;;
22652;SDS011;11493;43.344;26.226;2023-03-01T06:06:37;15.57;;;10.50;;
22652;SDS011;11493;43.344;26.226;2023-03-01T06:09:05;20.75;;;10.93;;
22652;SDS011;11493;43.344;26.226;2023-03-01T06:11:34;17.45;;;11.77;;
22652;SDS011;11493;43.344;26.226;2023-03-01T06:14:02;27.35;;;16.35;;
22652;SDS011;11493;43.344;26.226;2023-03-01T06:16:30;41.17;;;23.58;;
22652;SDS011;11493;43.344;26.226;2023-03-01T06:18:57;33.63;;;18.58;;
22652;SDS011;11493;43.344;26.226;2023-03-01T06:21:24;26.73;;;16.35;;
22652;SDS011;11493;43.344;26.226;2023-03-01T06:23:51;29.67;;;16.95;;
22652;SDS011;11493;43.344;26.226;2023-03-01T06:26:18;42.40;;;20.63;;
22652;SDS011;11493;43.344;26.226;2023-03-01T06:28:45;37.67;;;19.38;;
22652;SDS011;11493;43.344;26.226;2023-03-01T06:31:12;45.35;;;28.20;;
22652;SDS011;11493;43.344;26.226;2023-03-01T06:33:39;26.67;;;15.18;;
22652;SDS011;11493;43.344;26.226;2023-03-01T06:36:07;28.83;;;18.27;;
22652;SDS011;11493;43.344;26.226;2023-03-01T06:38:34;22.50;;;13.05;;
22652;SDS011;11493;43.344;26.226;2023-03-01T06:41:01;23.98;;;15.02;;
22652;SDS011;11493;43.344;26.226;2023-03-01T06:43:28;23.25;;;13.77;;
22652;SDS011;11493;43.344;26.226;2023-03-01T06:45:55;28.13;;;16.25;;
22652;SDS011;11493;43.344;26.226;2023-03-01T06:48:22;32.67;;;16.60;;
22652;SDS011;11493;43.344;26.226;2023-03-01T06:50:49;26.10;;;15.27;;
22652;SDS011;11493;43.344;26.226;2023-03-01T06:53:16;19.90;;;11.48;;
22652;SDS011;11493;43.344;26.226;2023-03-01T06:55:43;19.13;;;10.98;;
22652;SDS011;11493;43.344;26.226;2023-03-01T06:58:10;21.77;;;11.50;;
22652;SDS011;11493;43.344;26.226;2023-03-01T07:00:37;24.00;;;11.90;;
22652;SDS011;11493;43.344;26.226;2023-03-01T07:03:07;20.02;;;12.32;;
22652;SDS011;11493;43.344;26.226;2023-03-01T07:05:35;37.40;;;18.33;;
22652;SDS011;11493;43.344;26.226;2023-03-01T07:08:02;29.52;;;14.07;;
22652;SDS011;11493;43.344;26.226;2023-03-01T07:10:29;27.88;;;14.63;;
22652;SDS011;11493;43.344;26.226;2023-03-01T07:12:56;24.30;;;12.68;;
22652;SDS011;11493;43.344;26.226;2023-03-01T07:15:25;25.33;;;14.18;;
22652;SDS011;11493;43.344;26.226;2023-03-01T07:17:53;28.10;;;14.73;;
22652;SDS011;11493;43.344;26.226;2023-03-01T07:20:20;19.38;;;12.13;;
22652;SDS011;11493;43.344;26.226;2023-03-01T07:22:52;30.50;;;16.33;;
22652;SDS011;11493;43.344;26.226;2023-03-01T07:25:20;23.15;;;14.35;;
22652;SDS011;11493;43.344;26.226;2023-03-01T07:27:50;27.73;;;14.77;;
22652;SDS011;11493;43.344;26.226;2023-03-01T07:32:47;76.03;;;46.63;;
22652;SDS011;11493;43.344;26.226;2023-03-01T07:35:14;38.97;;;24.65;;
22652;SDS011;11493;43.344;26.226;2023-03-01T07:37:41;58.53;;;35.95;;
22652;SDS011;11493;43.344;26.226;2023-03-01T07:40:08;62.33;;;34.47;;
22652;SDS011;11493;43.344;26.226;2023-03-01T07:42:36;34.47;;;21.17;;
22652;SDS011;11493;43.344;26.226;2023-03-01T07:45:04;24.65;;;14.80;;
22652;SDS011;11493;43.344;26.226;2023-03-01T07:47:32;34.60;;;22.48;;
22652;SDS011;11493;43.344;26.226;2023-03-01T07:49:59;27.90;;;17.77;;
22652;SDS011;11493;43.344;26.226;2023-03-01T07:52:28;22.88;;;14.32;;
22652;SDS011;11493;43.344;26.226;2023-03-01T07:54:55;24.85;;;13.90;;
22652;SDS011;11493;43.344;26.226;2023-03-01T07:57:22;33.42;;;17.60;;
22652;SDS011;11493;43.344;26.226;2023-03-01T07:59:50;28.65;;;16.83;;
22652;SDS011;11493;43.344;26.226;2023-03-01T08:02:16;20.80;;;14.18;;
22652;SDS011;11493;43.344;26.226;2023-03-01T08:04:43;22.75;;;13.70;;
22652;SDS011;11493;43.344;26.226;2023-03-01T08:07:11;25.30;;;14.95;;
22652;SDS011;11493;43.344;26.226;2023-03-01T08:09:38;18.90;;;12.80;;
22652;SDS011;11493;43.344;26.226;2023-03-01T08:12:05;23.48;;;14.98;;
22652;SDS011;11493;43.344;26.226;2023-03-01T08:14:32;20.65;;;12.65;;
22652;SDS011;11493;43.344;26.226;2023-03-01T08:16:59;45.10;;;25.02;;
22652;SDS011;11493;43.344;26.226;2023-03-01T08:19:26;32.63;;;17.98;;
22652;SDS011;11493;43.344;26.226;2023-03-01T08:21:54;45.00;;;23.65;;
22652;SDS011;11493;43.344;26.226;2023-03-01T08:24:24;33.92;;;19.00;;
22652;SDS011;11493;43.344;26.226;2023-03-01T08:26:51;33.88;;;19.02;;
22652;SDS011;11493;43.344;26.226;2023-03-01T08:29:19;26.17;;;16.20;;
22652;SDS011;11493;43.344;26.226;2023-03-01T08:31:46;31.05;;;16.67;;
22652;SDS011;11493;43.344;26.226;2023-03-01T08:34:14;33.50;;;16.80;;
22652;SDS011;11493;43.344;26.226;2023-03-01T08:36:44;26.27;;;15.68;;
22652;SDS011;11493;43.344;26.226;2023-03-01T08:39:14;27.73;;;16.48;;
22652;SDS011;11493;43.344;26.226;2023-03-01T08:41:42;30.08;;;16.05;;
22652;SDS011;11493;43.344;26.226;2023-03-01T08:44:13;32.70;;;18.15;;
22652;SDS011;11493;43.344;26.226;2023-03-01T08:46:43;24.98;;;15.48;;
22652;SDS011;11493;43.344;26.226;2023-03-01T08:49:13;30.58;;;16.85;;
22652;SDS011;11493;43.344;26.226;2023-03-01T08:51:43;37.50;;;22.70;;
22652;SDS011;11493;43.344;26.226;2023-03-01T08:54:15;34.67;;;21.52;;
22652;SDS011;11493;43.344;26.226;2023-03-01T08:56:48;35.92;;;19.73;;
22652;SDS011;11493;43.344;26.226;2023-03-01T08:59:15;29.17;;;17.50;;
22652;SDS011;11493;43.344;26.226;2023-03-01T09:01:43;26.27;;;15.88;;
22652;SDS011;11493;43.344;26.226;2023-03-01T09:04:11;26.52;;;16.02;;
22652;SDS011;11493;43.344;26.226;2023-03-01T09:06:39;26.20;;;15.63;;
22652;SDS011;11493;43.344;26.226;2023-03-01T09:09:06;23.25;;;15.02;;
22652;SDS011;11493;43.344;26.226;2023-03-01T09:11:38;34.78;;;17.60;;
22652;SDS011;11493;43.344;26.226;2023-03-01T09:14:05;27.65;;;15.95;;
22652;SDS011;11493;43.344;26.226;2023-03-01T09:16:33;23.55;;;15.27;;
22652;SDS011;11493;43.344;26.226;2023-03-01T09:19:02;23.65;;;14.70;;
22652;SDS011;11493;43.344;26.226;2023-03-01T09:21:30;23.00;;;13.20;;
22652;SDS011;11493;43.344;26.226;2023-03-01T09:24:08;23.95;;;14.02;;
22652;SDS011;11493;43.344;26.226;2023-03-01T09:26:41;25.02;;;16.00;;
22652;SDS011;11493;43.344;26.226;2023-03-01T09:29:09;25.80;;;15.65;;
22652;SDS011;11493;43.344;26.226;2023-03-01T09:31:36;25.67;;;16.80;;
22652;SDS011;11493;43.344;26.226;2023-03-01T09:34:03;24.17;;;15.18;;
22652;SDS011;11493;43.344;26.226;2023-03-01T09:36:32;28.73;;;16.17;;
22652;SDS011;11493;43.344;26.226;2023-03-01T09:39:00;34.03;;;19.63;;
22652;SDS011;11493;43.344;26.226;2023-03-01T09:44:35;58.78;;;37.67;;
22652;SDS011;11493;43.344;26.226;2023-03-01T09:47:01;113.97;;;72.95;;
22652;SDS011;11493;43.344;26.226;2023-03-01T09:49:30;52.72;;;30.40;;
22652;SDS011;11493;43.344;26.226;2023-03-01T09:54:26;31.98;;;22.58;;
22652;SDS011;11493;43.344;26.226;2023-03-01T10:02:26;29.02;;;18.35;;
22652;SDS011;11493;43.344;26.226;2023-03-01T10:05:10;29.00;;;18.88;;
22652;SDS011;11493;43.344;26.226;2023-03-01T10:08:14;37.47;;;22.33;;
22652;SDS011;11493;43.344;26.226;2023-03-01T10:10:46;30.65;;;20.83;;
22652;SDS011;11493;43.344;26.226;2023-03-01T10:13:19;22.70;;;15.98;;
22652;SDS011;11493;43.344;26.226;2023-03-01T10:16:12;27.50;;;16.33;;
22652;SDS011;11493;43.344;26.226;2023-03-01T10:18:43;24.70;;;17.10;;
22652;SDS011;11493;43.344;26.226;2023-03-01T10:21:15;38.72;;;18.67;;
22652;SDS011;11493;43.344;26.226;2023-03-01T10:23:45;32.58;;;18.42;;
22652;SDS011;11493;43.344;26.226;2023-03-01T10:31:27;36.53;;;20.13;;
22652;SDS011;11493;43.344;26.226;2023-03-01T10:34:20;40.63;;;19.80;;
22652;SDS011;11493;43.344;26.226;2023-03-01T10:42:31;35.92;;;19.13;;
22652;SDS011;11493;43.344;26.226;2023-03-01T10:47:46;32.63;;;19.80;;
22652;SDS011;11493;43.344;26.226;2023-03-01T10:50:20;28.17;;;16.88;;
22652;SDS011;11493;43.344;26.226;2023-03-01T10:53:00;30.38;;;17.83;;
22652;SDS011;11493;43.344;26.226;2023-03-01T10:55:31;28.25;;;17.38;;
22652;SDS011;11493;43.344;26.226;2023-03-01T10:58:07;28.65;;;16.42;;
22652;SDS011;11493;43.344;26.226;2023-03-01T11:00:45;33.80;;;18.02;;
22652;SDS011;11493;43.344;26.226;2023-03-01T11:03:15;29.35;;;18.30;;
22652;SDS011;11493;43.344;26.226;2023-03-01T11:08:33;25.92;;;16.38;;
22652;SDS011;11493;43.344;26.226;2023-03-01T11:11:04;26.35;;;15.90;;
22652;SDS011;11493;43.344;26.226;2023-03-01T11:16:00;23.80;;;15.13;;
22652;SDS011;11493;43.344;26.226;2023-03-01T11:18:30;21.63;;;14.02;;
22652;SDS011;11493;43.344;26.226;2023-03-01T11:21:14;23.52;;;14.75;;
22652;SDS011;11493;43.344;26.226;2023-03-01T11:23:42;26.48;;;16.35;;
22652;SDS011;11493;43.344;26.226;2023-03-01T11:26:13;26.77;;;14.82;;
22652;SDS011;11493;43.344;26.226;2023-03-01T11:28:44;22.88;;;14.02;;
22652;SDS011;11493;43.344;26.226;2023-03-01T11:31:16;19.90;;;12.93;;
22652;SDS011;11493;43.344;26.226;2023-03-01T11:34:19;26.95;;;14.82;;
22652;SDS011;11493;43.344;26.226;2023-03-01T11:42:47;20.50;;;13.93;;
22652;SDS011;11493;43.344;26.226;2023-03-01T11:45:22;24.20;;;14.45;;
22652;SDS011;11493;43.344;26.226;2023-03-01T11:53:06;23.80;;;16.35;;
22652;SDS011;11493;43.344;26.226;2023-03-01T11:58:52;26.80;;;15.77;;
22652;SDS011;11493;43.344;26.226;2023-03-01T12:17:07;50.45;;;26.88;;
22652;SDS011;11493;43.344;26.226;2023-03-01T12:28:41;29.27;;;17.98;;
22652;SDS011;11493;43.344;26.226;2023-03-01T12:34:19;43.38;;;21.83;;
22652;SDS011;11493;43.344;26.226;2023-03-01T12:37:22;31.40;;;19.05;;
22652;SDS011;11493;43.344;26.226;2023-03-01T12:50:52;28.50;;;16.38;;
22652;SDS011;11493;43.344;26.226;2023-03-01T12:53:25;30.17;;;16.90;;
22652;SDS011;11493;43.344;26.226;2023-03-01T12:56:02;36.83;;;18.73;;
22652;SDS011;11493;43.344;26.226;2023-03-01T13:07:11;27.15;;;17.05;;
22652;SDS011;11493;43.344;26.226;2023-03-01T13:17:50;32.47;;;19.45;;
22652;SDS011;11493;43.344;26.226;2023-03-01T13:21:05;36.63;;;19.20;;
22652;SDS011;11493;43.344;26.226;2023-03-01T13:31:55;102.78;;;49.60;;
22652;SDS011;11493;43.344;26.226;2023-03-01T13:34:01;55.13;;;27.48;;
22652;SDS011;11493;43.344;26.226;2023-03-01T13:39:03;55.47;;;30.73;;
22652;SDS011;11493;43.344;26.226;2023-03-01T13:41:53;29.77;;;16.20;;
22652;SDS011;11493;43.344;26.226;2023-03-01T13:57:41;67.07;;;33.88;;
22652;SDS011;11493;43.344;26.226;2023-03-01T14:00:30;59.90;;;27.27;;
22652;SDS011;11493;43.344;26.226;2023-03-01T14:03:08;34.58;;;19.60;;
22652;SDS011;11493;43.344;26.226;2023-03-01T14:05:42;50.05;;;29.00;;
22652;SDS011;11493;43.344;26.226;2023-03-01T14:08:38;47.88;;;27.40;;
22652;SDS011;11493;43.344;26.226;2023-03-01T14:19:31;43.22;;;24.40;;
22652;SDS011;11493;43.344;26.226;2023-03-01T14:24:50;41.65;;;22.63;;
22652;SDS011;11493;43.344;26.226;2023-03-01T14:27:20;49.05;;;24.17;;
22652;SDS011;11493;43.344;26.226;2023-03-01T14:29:57;46.03;;;26.85;;
22652;SDS011;11493;43.344;26.226;2023-03-01T14:32:27;54.25;;;31.35;;
22652;SDS011;11493;43.344;26.226;2023-03-01T14:34:57;44.22;;;21.95;;
22652;SDS011;11493;43.344;26.226;2023-03-01T14:37:33;37.33;;;21.35;;
22652;SDS011;11493;43.344;26.226;2023-03-01T14:40:02;37.25;;;20.90;;
22652;SDS011;11493;43.344;26.226;2023-03-01T14:42:31;51.47;;;26.83;;
22652;SDS011;11493;43.344;26.226;2023-03-01T14:45:02;48.90;;;26.33;;
22652;SDS011;11493;43.344;26.226;2023-03-01T14:47:41;59.75;;;30.88;;
22652;SDS011;11493;43.344;26.226;2023-03-01T14:52:45;43.33;;;27.17;;
22652;SDS011;11493;43.344;26.226;2023-03-01T14:57:52;59.78;;;32.20;;
22652;SDS011;11493;43.344;26.226;2023-03-01T15:00:21;77.22;;;43.95;;
22652;SDS011;11493;43.344;26.226;2023-03-01T15:02:50;41.70;;;23.67;;
22652;SDS011;11493;43.344;26.226;2023-03-01T15:05:23;59.97;;;34.03;;
22652;SDS011;11493;43.344;26.226;2023-03-01T15:08:01;46.40;;;23.65;;
22652;SDS011;11493;43.344;26.226;2023-03-01T15:10:31;38.40;;;21.15;;
22652;SDS011;11493;43.344;26.226;2023-03-01T15:13:14;55.35;;;31.70;;
22652;SDS011;11493;43.344;26.226;2023-03-01T15:15:49;74.05;;;39.25;;
22652;SDS011;11493;43.344;26.226;2023-03-01T15:18:22;55.78;;;25.88;;
22652;SDS011;11493;43.344;26.226;2023-03-01T15:20:54;60.08;;;34.60;;
22652;SDS011;11493;43.344;26.226;2023-03-01T15:25:53;46.47;;;25.48;;
22652;SDS011;11493;43.344;26.226;2023-03-01T15:28:29;50.60;;;29.95;;
22652;SDS011;11493;43.344;26.226;2023-03-01T15:31:06;42.30;;;24.30;;
22652;SDS011;11493;43.344;26.226;2023-03-01T15:33:49;46.03;;;26.75;;
22652;SDS011;11493;43.344;26.226;2023-03-01T15:36:30;120.32;;;69.78;;
22652;SDS011;11493;43.344;26.226;2023-03-01T15:39:26;52.33;;;30.50;;
22652;SDS011;11493;43.344;26.226;2023-03-01T15:45:08;76.85;;;40.70;;
22652;SDS011;11493;43.344;26.226;2023-03-01T15:47:55;51.30;;;28.88;;
22652;SDS011;11493;43.344;26.226;2023-03-01T15:50:26;77.13;;;38.58;;
22652;SDS011;11493;43.344;26.226;2023-03-01T15:52:57;111.00;;;63.28;;
22652;SDS011;11493;43.344;26.226;2023-03-01T15:55:30;69.25;;;35.20;;
22652;SDS011;11493;43.344;26.226;2023-03-01T15:58:10;104.07;;;56.22;;
22652;SDS011;11493;43.344;26.226;2023-03-01T16:00:40;77.68;;;43.75;;
22652;SDS011;11493;43.344;26.226;2023-03-01T16:03:25;59.75;;;36.10;;
22652;SDS011;11493;43.344;26.226;2023-03-01T16:05:51;51.85;;;28.33;;
22652;SDS011;11493;43.344;26.226;2023-03-01T16:08:19;50.70;;;26.98;;
22652;SDS011;11493;43.344;26.226;2023-03-01T16:10:47;64.72;;;37.90;;
22652;SDS011;11493;43.344;26.226;2023-03-01T16:13:16;139.55;;;68.88;;
22652;SDS011;11493;43.344;26.226;2023-03-01T16:15:44;72.72;;;38.08;;
22652;SDS011;11493;43.344;26.226;2023-03-01T16:18:11;58.50;;;28.15;;
22652;SDS011;11493;43.344;26.226;2023-03-01T16:20:38;87.60;;;45.55;;
22652;SDS011;11493;43.344;26.226;2023-03-01T16:23:07;58.33;;;32.45;;
22652;SDS011;11493;43.344;26.226;2023-03-01T16:25:35;129.32;;;76.72;;
22652;SDS011;11493;43.344;26.226;2023-03-01T16:28:02;69.20;;;43.22;;
22652;SDS011;11493;43.344;26.226;2023-03-01T16:30:36;61.00;;;36.15;;
22652;SDS011;11493;43.344;26.226;2023-03-01T16:33:04;46.60;;;26.90;;
22652;SDS011;11493;43.344;26.226;2023-03-01T16:35:50;57.00;;;29.42;;
22652;SDS011;11493;43.344;26.226;2023-03-01T16:38:17;59.60;;;32.33;;
22652;SDS011;11493;43.344;26.226;2023-03-01T16:40:48;48.92;;;26.23;;
22652;SDS011;11493;43.344;26.226;2023-03-01T16:43:17;48.03;;;26.35;;
22652;SDS011;11493;43.344;26.226;2023-03-01T16:45:44;53.83;;;25.38;;
22652;SDS011;11493;43.344;26.226;2023-03-01T16:48:12;56.08;;;29.38;;
22652;SDS011;11493;43.344;26.226;2023-03-01T16:50:39;63.50;;;28.90;;
22652;SDS011;11493;43.344;26.226;2023-03-01T16:53:06;73.35;;;35.28;;
22652;SDS011;11493;43.344;26.226;2023-03-01T16:55:33;71.55;;;34.92;;
22652;SDS011;11493;43.344;26.226;2023-03-01T16:58:00;61.78;;;30.58;;
22652;SDS011;11493;43.344;26.226;2023-03-01T17:00:28;78.03;;;41.13;;
22652;SDS011;11493;43.344;26.226;2023-03-01T17:02:55;75.35;;;35.97;;
22652;SDS011;11493;43.344;26.226;2023-03-01T17:05:22;68.93;;;36.90;;
22652;SDS011;11493;43.344;26.226;2023-03-01T17:07:50;64.15;;;31.45;;
22652;SDS011;11493;43.344;26.226;2023-03-01T17:10:17;49.47;;;27.55;;
22652;SDS011;11493;43.344;26.226;2023-03-01T17:12:47;61.60;;;31.92;;
22652;SDS011;11493;43.344;26.226;2023-03-01T17:15:15;71.30;;;35.78;;
22652;SDS011;11493;43.344;26.226;2023-03-01T17:17:41;68.15;;;34.35;;
22652;SDS011;11493;43.344;26.226;2023-03-01T17:20:10;69.70;;;34.30;;